Rio Vista Municipal (O88)
Rio Vista, CA
Field Elevation: 22
Lat: 38°11.60N  Long: 121°42.22W
CTAF/Unicom Freq: 122.7250
   
     For Weather-by-Phone, call (707) 374-5396
Weather Advisories
2018-05-23   08:46 Z
Altimeter 29.86" Hg
Wind 210° @ 19 KT
Gusts 24 KT
Visibility 10 SM
Ceiling FEW150
Temperature 13° C (55° F)
Dewpoint 11° C (52° F)
Relative Humidity 83%
Density Altitude --
Condensation Altitude 1,100 feet
Wind and Runways
Indicated Runway = 25
Headwind = 15 kt
Crosswind = 12 kt
History
 
 
 
More Info
All DigiWx sites map
NOAA Forecast
 
Airport IQ 5010
(DUC) Stack Farm
(CA37) Dominican
 
about DigiWx
 
FAA Disclaimer: The data displayed is for advisory purposes only and is not to be used for flight planning or operations. For official data, please call (707) 374-5396 to hear the current automated AWOS voice message.
  METAR O88 230846Z AUTO 21019G24KT VIS 10 SM FEW150 13/11 A2986